Time;durP1;ratioP1;P1;durP2;ratioP2;P2;SDS_P1;SDS_P2;PMS_P1;PMS_P2;Temp;Humidity;BMP_temperature;BMP_pressure;BME280_temperature;BME280_humidity;BME280_pressure;Samples;Min_cycle;Max_cycle;Signal;HPM_P1;HPM_P2
2022/04/12 00:00:54;;;;;;;8.15;4.38;;;;;;;10.08;54.33;99634.97;1088143;54;20021;-80
2022/04/12 00:01:55;;;;;;;8.32;4.53;;;;;;;10.04;54.43;99628.25;1088088;54;20026;-81
2022/04/12 00:03:02;;;;;;;7.68;4.75;;;;;;;10.04;54.70;99625.59;1089698;47;20041;-82
2022/04/12 00:04:05;;;;;;;9.43;5.10;;;;;;;10.03;54.72;99626.56;1088159;54;20062;-82
2022/04/12 00:05:11;;;;;;;8.70;4.63;;;;;;;10.01;54.43;99628.56;1088191;54;20030;-79
2022/04/12 00:06:12;;;;;;;9.27;5.28;;;;;;;9.94;54.70;99624.81;1090090;39;20512;-80
2022/04/12 00:07:17;;;;;;;7.88;4.57;;;;;;;9.90;54.79;99623.44;1088143;54;20031;-80
2022/04/12 00:08:19;;;;;;;8.35;4.28;;;;;;;9.87;54.84;99631.75;1088501;47;20023;-82
2022/04/12 00:09:24;;;;;;;7.80;4.45;;;;;;;9.82;54.73;99635.69;1088175;54;20030;-81
2022/04/12 00:10:26;;;;;;;7.30;3.85;;;;;;;9.86;54.82;99630.91;1089874;47;20014;-80
2022/04/12 00:11:30;;;;;;;7.10;3.70;;;;;;;9.84;54.70;99628.38;1089704;47;20554;-83
2022/04/12 00:12:32;;;;;;;6.13;3.53;;;;;;;9.89;54.68;99625.25;1088140;54;20023;-82
2022/04/12 00:13:36;;;;;;;6.88;4.03;;;;;;;9.89;54.59;99630.59;1087740;54;20034;-82
2022/04/12 00:14:37;;;;;;;5.45;3.13;;;;;;;9.92;54.30;99629.47;1087734;54;20045;-81
2022/04/12 00:15:42;;;;;;;5.05;2.95;;;;;;;9.96;54.35;99630.84;1088120;54;20050;-82
2022/04/12 00:16:43;;;;;;;5.55;3.15;;;;;;;9.93;54.42;99632.00;1088030;54;20146;-81
2022/04/12 00:19:04;;;;;;;5.85;3.10;;;;;;;9.95;54.37;99629.16;1088094;54;20058;-81
2022/04/12 00:20:10;;;;;;;7.63;3.50;;;;;;;9.88;54.43;99625.41;1088070;54;20022;-82
2022/04/12 00:35:38;;;;;;;5.70;3.45;;;;;;;9.47;56.09;99631.97;1088211;54;20027;-81
2022/04/12 00:36:39;;;;;;;7.68;3.65;;;;;;;9.53;55.56;99627.84;1088394;54;20062;-81
2022/04/12 00:37:44;;;;;;;8.45;3.22;;;;;;;9.54;55.56;99621.53;1089179;46;20094;-80
2022/04/12 00:38:48;;;;;;;6.90;3.92;;;;;;;9.52;55.80;99627.03;1088381;54;20053;-81
2022/04/12 00:39:50;;;;;;;6.55;4.10;;;;;;;9.51;56.24;99630.69;1088439;54;20038;-81
2022/04/12 00:40:55;;;;;;;7.93;4.20;;;;;;;9.49;56.35;99630.00;1088328;54;20034;-80
2022/04/12 00:41:57;;;;;;;8.05;4.57;;;;;;;9.53;56.35;99622.53;1093478;46;20022;-81
2022/04/12 00:43:05;;;;;;;6.38;3.95;;;;;;;9.47;56.72;99621.28;1088624;54;20019;-80
2022/04/12 00:44:10;;;;;;;6.93;4.63;;;;;;;9.46;56.88;99624.94;1088535;54;20031;-80
2022/04/12 00:45:12;;;;;;;8.25;4.43;;;;;;;9.42;56.91;99620.91;1088687;54;20062;-81
2022/04/12 00:46:16;;;;;;;7.93;4.45;;;;;;;9.42;57.08;99626.25;1088537;54;20018;-81
2022/04/12 00:47:18;;;;;;;7.72;4.18;;;;;;;9.43;56.87;99627.91;1088568;54;20023;-82
2022/04/12 00:48:23;;;;;;;8.25;4.35;;;;;;;9.41;57.14;99627.22;1088654;54;20018;-80
2022/04/12 00:49:27;;;;;;;8.20;4.32;;;;;;;9.40;57.48;99625.53;1094950;39;20614;-81
2022/04/12 00:50:31;;;;;;;7.18;4.07;;;;;;;9.45;56.82;99622.44;1088528;54;20037;-80
2022/04/12 00:52:01;;;;;;;7.95;3.97;;;;;;;9.42;57.37;99633.38;1088625;54;20042;-80
2022/04/12 00:53:19;;;;;;;7.45;4.40;;;;;;;9.32;57.69;99623.59;1088512;54;20022;-80
2022/04/12 00:54:28;;;;;;;6.38;4.18;;;;;;;9.32;57.28;99622.78;1088538;54;20027;-80
2022/04/12 00:55:35;;;;;;;8.40;4.13;;;;;;;9.32;57.48;99622.78;1092661;39;20579;-81
2022/04/12 00:56:45;;;;;;;10.05;4.25;;;;;;;9.33;57.46;99621.78;1088410;54;20050;-82
2022/04/12 01:00:08;;;;;;;6.32;3.80;;;;;;;9.35;57.40;99615.31;1089427;46;20019;-80
2022/04/12 01:01:54;;;;;;;7.07;4.13;;;;;;;9.32;57.37;99622.78;1088436;54;20027;-81
2022/04/12 01:03:50;;;;;;;;;;;;;;;;;;;;;
2022/04/12 01:07:36;;;;;;;6.03;3.40;;;;;;;9.16;58.74;99628.72;1088538;54;20025;-81
2022/04/12 01:08:58;;;;;;;7.60;3.78;;;;;;;9.07;59.29;99633.09;1096777;39;20613;-81
2022/04/12 01:16:23;;;;;;;;;;;;;;;;;;;;;
2022/04/12 01:31:58;;;;;;;8.50;4.72;;;;;;;8.71;60.33;99616.91;1088150;54;20035;-80
2022/04/12 01:36:57;;;;;;;6.30;3.78;;;;;;;8.71;59.69;99622.25;1088492;54;20022;-79
2022/04/12 01:57:03;;;;;;;7.60;3.47;;;;;;;8.72;60.19;99621.25;1088172;54;20019;-81
2022/04/12 01:58:38;;;;;;;5.47;3.15;;;;;;;8.67;61.02;99618.19;1088343;54;20038;-81
2022/04/12 01:59:43;;;;;;;7.50;3.50;;;;;;;8.69;60.35;99627.72;1088291;54;20094;-81
2022/04/12 02:01:16;;;;;;;5.80;3.33;;;;;;;8.70;60.59;99623.22;1088362;47;20030;-80
2022/04/12 02:02:27;;;;;;;6.60;3.33;;;;;;;8.71;60.35;99616.91;1088410;54;20030;-81
2022/04/12 02:03:41;;;;;;;6.53;3.50;;;;;;;8.73;60.21;99612.28;1088328;54;20082;-82
2022/04/12 02:19:39;;;;;;;7.38;3.78;;;;;;;8.54;61.48;99608.66;1088276;54;20025;-80
2022/04/12 02:22:56;;;;;;;5.15;3.33;;;;;;;8.54;61.40;99623.81;1088374;54;20026;-82
2022/04/12 02:26:30;;;;;;;6.47;4.00;;;;;;;8.42;62.17;99615.09;1090654;39;20652;-81
2022/04/12 02:27:50;;;;;;;7.28;3.80;;;;;;;8.42;62.38;99617.75;1088261;54;20042;-83
2022/04/12 02:29:06;;;;;;;6.72;4.20;;;;;;;8.36;62.05;99611.16;1088141;54;20050;-82
2022/04/12 02:35:54;;;;;;;8.10;5.38;;;;;;;7.69;66.12;99610.16;1074964;54;20482;-83
2022/04/12 02:37:05;;;;;;;;;;;;;;;7.62;66.64;99613.34;1082306;54;21052;-81
2022/04/12 02:38:08;;;;;;;12.98;5.05;;;;;;;7.65;65.71;99612.25;1088746;54;19930;-81
2022/04/12 02:39:13;;;;;;;12.15;5.07;;;;;;;7.67;65.32;99610.28;1098346;39;20524;-84
2022/04/12 02:40:20;;;;;;;8.40;5.35;;;;;;;7.67;65.70;99609.44;1088689;54;20046;-84
2022/04/12 02:41:25;;;;;;;8.45;4.95;;;;;;;7.76;64.89;99619.25;1088695;54;20029;-83
2022/04/12 02:42:33;;;;;;;8.68;4.68;;;;;;;7.89;64.62;99617.19;1091295;46;20058;-84
2022/04/12 02:43:37;;;;;;;7.22;5.38;;;;;;;7.89;64.56;99617.19;1088462;54;20070;-81
2022/04/12 02:44:53;;;;;;;8.43;5.00;;;;;;;7.90;64.75;99620.69;1088601;54;20029;-82
2022/04/12 02:45:55;;;;;;;9.25;4.82;;;;;;;7.96;64.18;99615.66;1088736;54;20021;-82
2022/04/12 02:47:00;;;;;;;8.52;4.50;;;;;;;8.05;63.93;99618.47;1108482;46;20046;-84
2022/04/12 02:48:01;;;;;;;6.70;4.22;;;;;;;8.11;63.58;99609.94;1088705;54;20038;-83
2022/04/12 02:49:17;;;;;;;8.68;4.45;;;;;;;8.15;63.58;99606.00;1088718;54;20037;-84
2022/04/12 02:50:18;;;;;;;7.05;3.95;;;;;;;8.18;63.54;99604.88;1088617;54;20041;-83
2022/04/12 02:51:32;;;;;;;7.10;3.53;;;;;;;8.20;63.59;99603.75;1088670;54;20025;-83
2022/04/12 02:52:34;;;;;;;6.72;4.05;;;;;;;8.23;63.07;99606.13;1088734;54;20018;-83
2022/04/12 02:56:00;;;;;;;5.93;3.70;;;;;;;8.24;63.28;99599.81;1088727;54;20002;-83
2022/04/12 02:57:09;;;;;;;6.80;3.88;;;;;;;8.19;63.53;99604.75;1094738;46;20021;-83
2022/04/12 02:58:13;;;;;;;7.38;4.70;;;;;;;8.16;63.35;99601.53;1093199;39;20543;-82
2022/04/12 02:59:17;;;;;;;7.80;4.25;;;;;;;8.13;63.43;99599.97;1088688;54;20027;-83
2022/04/12 03:35:38;;;;;;;7.30;4.30;;;;;;;8.10;63.28;99594.94;1089748;46;20061;-82
2022/04/12 03:36:43;;;;;;;5.93;3.80;;;;;;;8.11;63.12;99601.94;1088601;54;20007;-82
2022/04/12 03:39:34;;;;;;;5.75;3.65;;;;;;;8.02;63.22;99590.31;1088679;54;20018;-82
2022/04/12 03:41:22;;;;;;;7.32;4.60;;;;;;;7.97;63.31;99593.38;1100716;46;20016;-82
2022/04/12 03:42:26;;;;;;;8.52;4.40;;;;;;;7.95;63.51;99584.69;1098484;46;20019;-84
2022/04/12 03:46:53;;;;;;;6.50;3.92;;;;;;;7.95;63.57;99600.66;1088431;46;20014;-83
2022/04/12 04:00:40;;;;;;;8.00;4.35;;;;;;;7.81;63.80;99601.91;1089120;46;20028;-82
2022/04/12 04:01:41;;;;;;;7.93;4.20;;;;;;;7.81;63.81;99601.06;1088502;54;20007;-81
2022/04/12 04:02:53;;;;;;;5.95;4.43;;;;;;;7.84;63.80;99598.13;1088548;54;20086;-82
2022/04/12 04:03:55;;;;;;;6.03;3.65;;;;;;;7.87;63.71;99603.16;1097034;39;20581;-83
2022/04/12 04:04:59;;;;;;;7.47;4.00;;;;;;;7.89;63.69;99603.88;1088649;54;20006;-83
2022/04/12 04:11:50;;;;;;;5.47;3.40;;;;;;;7.93;63.75;99604.44;1088328;54;20042;-78
2022/04/12 04:12:53;;;;;;;6.25;3.80;;;;;;;7.96;63.91;99601.50;1089963;47;20034;-77
2022/04/12 04:14:00;;;;;;;7.38;4.00;;;;;;;7.97;63.93;99604.03;1093577;39;20687;-78
2022/04/12 04:15:03;;;;;;;6.97;3.88;;;;;;;8.01;64.12;99601.09;1087885;54;20041;-79
2022/04/12 04:16:10;;;;;;;6.10;3.45;;;;;;;8.03;63.93;99597.31;1099487;31;20717;-78
2022/04/12 04:17:11;;;;;;;5.88;3.78;;;;;;;8.04;63.77;99592.81;1087991;54;20058;-78
2022/04/12 04:18:16;;;;;;;6.38;3.50;;;;;;;8.06;63.55;99593.50;1087988;54;20031;-78
2022/04/12 04:19:17;;;;;;;7.25;4.10;;;;;;;7.94;63.93;99598.97;1087658;54;20046;-78
2022/04/12 04:20:22;;;;;;;5.88;3.60;;;;;;;8.00;64.05;99602.91;1087766;54;20056;-77
2022/04/12 04:21:23;;;;;;;8.35;3.92;;;;;;;7.96;63.91;99605.00;1088047;54;20038;-78
2022/04/12 04:22:27;;;;;;;6.68;3.90;;;;;;;7.93;63.98;99610.63;1087984;54;20192;-79
2022/04/12 04:23:29;;;;;;;8.65;4.28;;;;;;;7.81;64.53;99601.91;1088059;54;20039;-77
2022/04/12 04:24:34;;;;;;;9.85;5.10;;;;;;;7.61;65.02;99611.69;1087980;54;20034;-79
2022/04/12 04:25:35;;;;;;;8.68;5.10;;;;;;;7.43;66.20;99605.31;1087954;54;20065;-78
2022/04/12 04:26:39;;;;;;;9.73;5.93;;;;;;;7.36;66.39;99612.16;1088027;54;20031;-79
2022/04/12 04:27:41;;;;;;;10.18;6.03;;;;;;;7.34;66.03;99607.81;1087797;54;20031;-78
2022/04/12 04:28:48;;;;;;;10.82;6.90;;;;;;;7.20;66.94;99615.31;1087958;54;20087;-78
2022/04/12 04:29:50;;;;;;;10.55;6.03;;;;;;;7.12;66.91;99614.19;1087895;54;20604;-79
2022/04/12 04:30:54;;;;;;;11.20;6.35;;;;;;;7.02;67.48;99615.94;1087983;54;20046;-78
2022/04/12 04:32:01;;;;;;;11.68;6.85;;;;;;;6.94;67.70;99613.94;1087851;54;20634;-78
2022/04/12 04:33:02;;;;;;;9.70;6.63;;;;;;;6.98;67.75;99614.50;1087857;54;20034;-79
2022/04/12 04:34:06;;;;;;;10.65;5.97;;;;;;;6.96;67.72;99617.31;1089585;47;20041;-79
2022/04/12 04:35:09;;;;;;;12.15;6.82;;;;;;;6.89;67.78;99624.13;1087878;54;20035;-78
2022/04/12 04:36:13;;;;;;;9.27;5.75;;;;;;;6.88;67.82;99617.13;1088435;39;20387;-78
2022/04/12 04:37:15;;;;;;;9.98;5.18;;;;;;;6.91;67.72;99613.38;1087764;54;20022;-77
2022/04/12 04:38:19;;;;;;;11.25;6.03;;;;;;;6.89;67.69;99615.31;1088030;54;20034;-78
2022/04/12 04:39:20;;;;;;;11.10;6.63;;;;;;;6.89;67.81;99615.31;1088072;54;20019;-77
2022/04/12 04:40:25;;;;;;;9.32;5.95;;;;;;;6.89;67.62;99616.16;1088002;54;20061;-79
2022/04/12 04:41:29;;;;;;;9.52;6.03;;;;;;;6.86;67.68;99619.91;1091284;39;20428;-79
2022/04/12 04:42:32;;;;;;;9.52;6.15;;;;;;;6.76;67.71;99608.38;1088084;47;20025;-79
2022/04/12 04:43:36;;;;;;;9.60;5.80;;;;;;;6.77;67.71;99604.75;1088005;54;20178;-78
2022/04/12 04:44:37;;;;;;;9.20;5.80;;;;;;;6.79;67.84;99604.63;1088070;54;20038;-78
2022/04/12 04:45:43;;;;;;;10.23;6.28;;;;;;;6.85;67.94;99610.25;1088067;54;20098;-78
2022/04/12 04:46:44;;;;;;;10.55;6.00;;;;;;;6.97;67.24;99605.72;1089541;47;20015;-78
2022/04/12 04:47:57;;;;;;;7.32;5.05;;;;;;;7.07;67.15;99600.44;1088142;54;20114;-78
2022/04/12 04:48:58;;;;;;;8.40;5.22;;;;;;;7.03;66.69;99607.00;1089799;47;20038;-78
2022/04/12 04:50:03;;;;;;;7.72;5.13;;;;;;;7.01;66.86;99612.44;1090944;47;20038;-77
2022/04/12 04:51:07;;;;;;;8.48;5.05;;;;;;;6.99;66.89;99606.41;1089837;47;20031;-77
2022/04/12 04:52:09;;;;;;;8.95;4.85;;;;;;;6.91;67.27;99597.41;1088105;54;20038;-78
2022/04/12 04:53:13;;;;;;;8.73;5.35;;;;;;;6.97;66.97;99597.75;1093105;39;20299;-78
2022/04/12 04:54:17;;;;;;;9.50;5.13;;;;;;;7.02;66.64;99598.16;1088063;54;20026;-78
2022/04/12 04:55:20;;;;;;;7.72;5.07;;;;;;;7.05;66.55;99601.53;1089647;47;20031;-77
2022/04/12 04:56:24;;;;;;;8.18;5.03;;;;;;;7.00;66.91;99607.25;1087927;54;20026;-77
2022/04/12 04:57:28;;;;;;;8.27;5.03;;;;;;;6.96;66.98;99601.38;1087495;54;20054;-77
2022/04/12 04:58:32;;;;;;;8.98;4.90;;;;;;;6.93;67.14;99601.63;1087436;54;20058;-79
2022/04/12 04:59:34;;;;;;;8.25;4.80;;;;;;;7.03;66.92;99602.50;1087887;54;20086;-77
2022/04/12 05:00:38;;;;;;;8.70;5.30;;;;;;;6.92;67.23;99597.28;1089254;39;20448;-79
2022/04/12 05:01:40;;;;;;;10.23;5.70;;;;;;;6.90;67.39;99603.69;1087921;54;20046;-78
2022/04/12 05:02:45;;;;;;;8.98;5.70;;;;;;;6.91;67.17;99602.72;1087804;54;20073;-79
2022/04/12 05:03:52;;;;;;;10.32;5.72;;;;;;;6.89;67.57;99600.22;1087663;54;20042;-79
2022/04/12 05:04:54;;;;;;;8.93;5.40;;;;;;;6.92;67.32;99605.25;1087802;54;20097;-79
2022/04/12 05:05:58;;;;;;;13.60;5.53;;;;;;;6.98;67.27;99603.88;1087782;54;20034;-78
2022/04/12 05:07:00;;;;;;;8.60;5.05;;;;;;;7.00;67.29;99607.25;1088088;54;20027;-78
2022/04/12 05:08:05;;;;;;;9.80;5.32;;;;;;;7.01;67.24;99609.78;1088244;54;20559;-78
2022/04/12 05:09:07;;;;;;;11.65;5.57;;;;;;;6.91;67.26;99608.88;1091770;39;20492;-78
2022/04/12 05:10:15;;;;;;;9.75;5.93;;;;;;;6.77;68.07;99604.75;1088237;54;20073;-78
2022/04/12 05:11:16;;;;;;;8.65;5.53;;;;;;;6.63;68.55;99616.53;1087969;54;20037;-77
2022/04/12 05:12:20;;;;;;;9.23;5.65;;;;;;;6.56;68.70;99612.72;1088772;46;20022;-77
2022/04/12 05:13:24;;;;;;;10.43;6.65;;;;;;;6.50;68.72;99613.25;1088212;54;20038;-78
2022/04/12 05:14:26;;;;;;;12.68;7.43;;;;;;;6.46;69.12;99611.81;1088251;54;20030;-78
2022/04/12 05:15:31;;;;;;;10.02;6.13;;;;;;;6.46;68.98;99618.00;1089749;39;20678;-78
2022/04/12 05:16:32;;;;;;;11.38;6.65;;;;;;;6.44;68.89;99606.66;1088063;54;20038;-77
2022/04/12 05:17:36;;;;;;;12.45;7.05;;;;;;;6.38;69.36;99623.06;1088227;46;20661;-78
2022/04/12 05:18:38;;;;;;;13.15;6.88;;;;;;;6.34;69.65;99619.00;1088250;46;20022;-78
2022/04/12 05:19:56;;;;;;;10.90;6.05;;;;;;;6.37;70.41;99618.75;1088210;54;20034;-78
2022/04/12 05:20:58;;;;;;;11.02;6.63;;;;;;;6.32;70.21;99615.63;1088233;54;20031;-79
2022/04/12 05:22:02;;;;;;;9.57;6.85;;;;;;;6.38;70.03;99620.41;1088101;54;20038;-78
2022/04/12 05:23:04;;;;;;;11.07;6.20;;;;;;;6.36;70.13;99617.91;1089068;46;20058;-78
2022/04/12 05:24:08;;;;;;;12.10;6.85;;;;;;;6.40;70.08;99615.81;1088247;54;20037;-78
2022/04/12 05:25:10;;;;;;;12.23;7.13;;;;;;;6.42;69.96;99621.84;1088137;54;20034;-79
2022/04/12 05:26:14;;;;;;;11.18;6.90;;;;;;;6.36;70.14;99620.56;1088280;54;20754;-78
2022/04/12 05:27:16;;;;;;;10.90;7.32;;;;;;;6.33;70.38;99620.81;1088277;54;20047;-77
2022/04/12 05:28:20;;;;;;;11.20;7.32;;;;;;;6.31;70.45;99627.22;1088107;54;20038;-78
2022/04/12 05:29:22;;;;;;;14.52;7.43;;;;;;;6.32;70.40;99629.75;1088291;54;20086;-78
2022/04/12 05:30:26;;;;;;;13.18;8.30;;;;;;;6.34;70.42;99632.28;1088247;54;20041;-78
2022/04/12 05:31:27;;;;;;;16.02;9.43;;;;;;;6.38;70.51;99634.56;1088268;54;20038;-78
2022/04/12 05:32:32;;;;;;;12.75;7.63;;;;;;;6.38;70.36;99634.56;1090167;39;20623;-78
2022/04/12 05:33:33;;;;;;;11.43;7.28;;;;;;;6.45;70.04;99636.69;1087805;54;20054;-78
2022/04/12 05:34:38;;;;;;;12.27;7.85;;;;;;;6.44;70.03;99635.00;1087936;54;20042;-78
2022/04/12 05:35:45;;;;;;;11.68;7.13;;;;;;;6.53;69.74;99634.22;1088200;54;20074;-78
2022/04/12 05:36:46;;;;;;;9.95;6.68;;;;;;;6.70;69.37;99636.31;1088255;54;20022;-78
2022/04/12 05:37:52;;;;;;;10.70;7.00;;;;;;;6.82;68.68;99629.13;1088241;54;20773;-78
2022/04/12 05:38:56;;;;;;;9.07;6.25;;;;;;;6.89;68.66;99626.78;1088304;54;20042;-78
2022/04/12 05:39:58;;;;;;;8.43;6.13;;;;;;;6.96;68.30;99632.41;1088245;54;20034;-79
2022/04/12 05:41:02;;;;;;;10.32;6.10;;;;;;;7.01;68.23;99633.69;1088282;54;20049;-78
2022/04/12 05:42:05;;;;;;;8.25;5.53;;;;;;;7.06;67.91;99630.63;1088096;54;20769;-78
2022/04/12 05:43:09;;;;;;;9.35;5.63;;;;;;;7.06;67.98;99627.16;1088267;54;20026;-77
2022/04/12 05:44:10;;;;;;;9.13;5.90;;;;;;;7.14;67.68;99632.63;1088205;54;20042;-78
2022/04/12 05:45:16;;;;;;;9.38;5.43;;;;;;;7.18;67.38;99634.91;1088226;54;20034;-78
2022/04/12 05:46:20;;;;;;;7.55;5.22;;;;;;;7.22;67.34;99624.00;1088205;54;20047;-78
2022/04/12 05:47:21;;;;;;;7.97;4.88;;;;;;;7.28;67.46;99632.28;1088055;54;20592;-79
2022/04/12 05:48:25;;;;;;;7.65;4.78;;;;;;;7.30;67.08;99630.31;1088203;54;20037;-78
2022/04/12 05:49:28;;;;;;;10.18;5.65;;;;;;;7.32;67.14;99635.53;1088062;54;20038;-78
2022/04/12 05:50:32;;;;;;;8.63;5.20;;;;;;;7.38;66.89;99632.31;1087725;54;20035;-79
2022/04/12 05:51:36;;;;;;;9.80;4.85;;;;;;;7.44;66.70;99637.09;1088027;54;20037;-78
2022/04/12 05:52:41;;;;;;;7.93;4.38;;;;;;;7.49;66.85;99637.56;1088123;54;20035;-77
2022/04/12 05:53:43;;;;;;;8.13;4.95;;;;;;;7.53;66.46;99635.47;1088142;54;20042;-77
2022/04/12 05:54:47;;;;;;;7.93;4.95;;;;;;;7.59;66.53;99629.59;1088296;54;20022;-78
2022/04/12 05:55:48;;;;;;;6.75;4.40;;;;;;;7.64;66.14;99638.03;1088958;46;20023;-79
2022/04/12 05:56:53;;;;;;;9.40;4.70;;;;;;;7.70;66.29;99630.44;1088238;54;20042;-77
2022/04/12 05:57:56;;;;;;;7.93;5.07;;;;;;;7.70;66.19;99639.25;1088137;54;20053;-78
2022/04/12 05:59:00;;;;;;;6.88;4.60;;;;;;;7.74;65.98;99638.03;1088282;54;20027;-78
2022/04/12 06:00:03;;;;;;;7.95;5.15;;;;;;;7.80;65.92;99637.47;1088545;54;20038;-77
2022/04/12 06:01:07;;;;;;;8.60;4.57;;;;;;;7.81;66.01;99643.66;1088429;54;20022;-77
2022/04/12 06:02:10;;;;;;;11.15;4.90;;;;;;;7.77;65.76;99637.75;1088355;54;20019;-78
2022/04/12 06:03:14;;;;;;;8.63;5.18;;;;;;;7.78;65.68;99642.13;1088276;54;20045;-79
2022/04/12 06:04:16;;;;;;;9.85;5.63;;;;;;;7.81;65.33;99643.66;1091472;46;20034;-78
2022/04/12 06:05:21;;;;;;;9.85;5.68;;;;;;;7.77;65.51;99644.88;1088304;54;20031;-78
2022/04/12 06:06:22;;;;;;;10.52;5.28;;;;;;;7.69;65.64;99655.38;1091025;39;20504;-78
2022/04/12 06:07:35;;;;;;;9.75;6.03;;;;;;;7.72;65.57;99650.63;1087665;54;20034;-77
2022/04/12 06:08:37;;;;;;;11.07;6.40;;;;;;;7.74;65.55;99647.84;1088332;54;20023;-78
2022/04/12 06:09:41;;;;;;;8.93;5.90;;;;;;;7.84;65.35;99654.00;1088210;54;20049;-79
2022/04/12 06:10:42;;;;;;;11.75;5.53;;;;;;;7.91;65.16;99643.66;1088225;54;20053;-78
2022/04/12 06:11:47;;;;;;;10.50;5.75;;;;;;;7.98;64.79;99647.47;1091236;39;20693;-78
2022/04/12 06:12:49;;;;;;;9.18;5.45;;;;;;;8.02;64.69;99638.22;1088095;54;20724;-78
2022/04/12 06:13:54;;;;;;;9.82;5.25;;;;;;;8.04;64.51;99638.94;1088285;54;20082;-78
2022/04/12 06:14:55;;;;;;;10.48;5.70;;;;;;;8.11;64.42;99649.88;1088277;54;20041;-78
2022/04/12 06:15:59;;;;;;;11.68;6.05;;;;;;;8.14;64.17;99646.91;1088253;54;20019;-78
2022/04/12 06:17:01;;;;;;;8.95;4.80;;;;;;;8.17;64.11;99641.31;1088119;54;20026;-77
2022/04/12 06:18:06;;;;;;;11.52;5.90;;;;;;;8.17;64.09;99637.81;1088113;54;20576;-78
2022/04/12 06:19:08;;;;;;;10.15;5.85;;;;;;;8.17;63.87;99636.00;1088090;54;20034;-79
2022/04/12 06:20:14;;;;;;;10.35;4.88;;;;;;;8.22;63.82;99636.41;1088250;54;20041;-78
2022/04/12 06:21:16;;;;;;;10.10;5.05;;;;;;;8.28;63.56;99629.69;1088189;54;20039;-78
2022/04/12 06:22:20;;;;;;;7.57;5.07;;;;;;;8.30;63.52;99630.38;1088138;54;20034;-78
2022/04/12 06:23:28;;;;;;;9.35;5.50;;;;;;;8.33;63.36;99630.13;1087689;54;20061;-79
2022/04/12 06:24:33;;;;;;;8.32;4.85;;;;;;;8.39;63.13;99632.19;1087998;54;20018;-78
2022/04/12 06:25:37;;;;;;;6.93;4.60;;;;;;;8.44;63.20;99629.13;1088106;54;20082;-80
2022/04/12 06:26:38;;;;;;;8.85;5.15;;;;;;;8.49;63.23;99634.91;1088138;54;20047;-78
2022/04/12 06:27:46;;;;;;;10.02;5.43;;;;;;;8.51;63.22;99632.09;1088154;54;20036;-79
2022/04/12 06:28:50;;;;;;;8.15;5.13;;;;;;;8.49;62.87;99632.25;1088257;54;20022;-78
2022/04/12 06:29:52;;;;;;;16.90;9.13;;;;;;;8.52;62.91;99628.44;1088355;47;20969;-77
2022/04/12 06:30:58;;;;;;;21.73;13.05;;;;;;;8.54;62.76;99619.31;1088108;54;20536;-79
2022/04/12 06:32:02;;;;;;;15.32;10.38;;;;;;;8.56;62.68;99622.69;1088103;54;20720;-79
2022/04/12 06:33:07;;;;;;;14.32;8.73;;;;;;;8.62;62.84;99625.75;1088206;54;20034;-77
2022/04/12 06:35:16;;;;;;;12.82;8.30;;;;;;;8.71;62.46;99630.22;1088310;54;20014;-78
2022/04/12 06:36:17;;;;;;;12.05;7.38;;;;;;;8.73;62.17;99622.94;1089938;46;20038;-78
2022/04/12 06:37:22;;;;;;;14.27;7.18;;;;;;;8.76;62.42;99630.66;1088129;54;20069;-78
2022/04/12 06:38:29;;;;;;;11.07;6.47;;;;;;;8.77;62.18;99621.69;1104186;46;20018;-83
2022/04/12 06:39:30;;;;;;;13.45;6.68;;;;;;;8.83;62.21;99634.44;1088447;54;20018;-83
2022/04/12 06:42:34;;;;;;;21.42;6.45;;;;;;;8.76;61.87;99633.31;1088335;54;20018;-81
2022/04/12 06:43:38;;;;;;;15.40;6.80;;;;;;;8.86;62.02;99627.97;1088658;54;20022;-81
2022/04/12 06:44:46;;;;;;;9.38;5.80;;;;;;;8.92;61.67;99632.75;1088684;54;20031;-82
2022/04/12 06:51:43;;;;;;;15.57;6.10;;;;;;;9.08;61.38;99624.09;1088199;54;20098;-82
2022/04/12 06:55:30;;;;;;;;;;;;;;;;;;;;;
2022/04/12 07:38:12;;;;;;;9.40;4.20;;;;;;;11.27;54.01;99595.41;1088063;54;19942;-82
2022/04/12 08:14:28;;;;;;;7.78;3.85;;;;;;;14.24;45.55;99596.06;1087649;54;20031;-82
2022/04/12 08:15:30;;;;;;;12.73;5.32;;;;;;;14.38;46.05;99587.19;1088497;54;20038;-83
2022/04/12 08:31:55;;;;;;;8.27;4.63;;;;;;;15.63;42.34;99582.19;1077149;39;21343;-82
2022/04/12 08:33:02;;;;;;;9.40;3.95;;;;;;;15.86;41.83;99573.16;1088460;54;20034;-82
2022/04/12 08:35:18;;;;;;;8.93;3.55;;;;;;;15.88;40.95;99565.69;1088480;54;20018;-86
2022/04/12 08:36:22;;;;;;;5.85;3.45;;;;;;;16.18;41.33;99566.41;1088342;54;20019;-83
2022/04/12 08:37:26;;;;;;;8.68;3.38;;;;;;;16.42;41.14;99564.31;1088424;54;20014;-82
2022/04/12 08:38:37;;;;;;;6.57;3.58;;;;;;;16.62;40.20;99572.59;1088467;54;20138;-83
2022/04/12 08:39:41;;;;;;;9.95;3.78;;;;;;;16.49;40.96;99564.38;1088349;54;20014;-84
2022/04/12 08:40:49;;;;;;;6.47;3.45;;;;;;;16.77;40.31;99564.38;1088464;54;20026;-82
2022/04/12 08:41:54;;;;;;;6.75;3.78;;;;;;;16.97;39.96;99558.31;1088601;54;20019;-85
2022/04/12 08:43:00;;;;;;;8.95;3.45;;;;;;;17.18;39.55;99552.00;1088781;54;20042;-85
2022/04/12 08:44:05;;;;;;;8.30;3.70;;;;;;;17.18;39.92;99564.66;1088711;54;20055;-84
2022/04/12 08:45:10;;;;;;;7.03;4.03;;;;;;;16.93;39.84;99559.72;1088677;54;20035;-86
2022/04/12 08:46:14;;;;;;;10.35;4.28;;;;;;;16.61;40.04;99564.69;1091316;46;20037;-85
2022/04/12 08:47:20;;;;;;;8.65;3.92;;;;;;;16.82;40.09;99566.47;1088727;54;20161;-85
2022/04/12 08:48:28;;;;;;;8.70;3.20;;;;;;;17.11;39.38;99553.81;1100437;46;20091;-82
2022/04/12 08:49:32;;;;;;;9.82;3.83;;;;;;;17.21;39.56;99550.75;1088737;54;20041;-85
2022/04/12 08:50:47;;;;;;;7.55;4.53;;;;;;;17.30;38.94;99547.69;1088688;54;20031;-83
2022/04/12 08:51:51;;;;;;;10.57;3.60;;;;;;;17.31;38.93;99552.03;1096289;46;20019;-85
2022/04/12 08:52:54;;;;;;;10.13;3.92;;;;;;;17.36;38.47;99543.34;1088749;54;20046;-83
2022/04/12 08:53:59;;;;;;;6.38;3.65;;;;;;;17.23;38.88;99541.41;1088749;54;20041;-83
2022/04/12 08:55:01;;;;;;;7.30;3.05;;;;;;;17.36;38.95;99546.03;1089598;46;20063;-87
2022/04/12 08:56:13;;;;;;;8.63;4.10;;;;;;;16.91;38.76;99549.09;1088877;54;20030;-83
2022/04/12 08:57:17;;;;;;;9.77;4.47;;;;;;;16.84;39.61;99545.53;1088772;54;20106;-84
2022/04/12 08:59:27;;;;;;;9.10;3.72;;;;;;;16.78;40.28;99549.03;1088721;54;20019;-83
2022/04/12 09:00:31;;;;;;;7.97;3.20;;;;;;;16.81;40.56;99549.47;1088814;54;20033;-85
2022/04/12 09:01:43;;;;;;;5.38;2.97;;;;;;;17.04;40.13;99548.41;1088777;54;20029;-84
2022/04/12 09:02:58;;;;;;;7.35;3.40;;;;;;;17.12;39.77;99550.94;1088674;54;20025;-83
2022/04/12 09:05:11;;;;;;;7.53;3.13;;;;;;;17.37;39.08;99546.88;1088706;54;20030;-84
2022/04/12 09:06:16;;;;;;;6.50;3.10;;;;;;;17.53;38.94;99546.53;1088665;54;20022;-87
2022/04/12 09:07:28;;;;;;;5.30;2.42;;;;;;;17.66;38.62;99540.31;1088679;54;20022;-86
2022/04/12 09:08:33;;;;;;;5.47;2.70;;;;;;;17.78;38.34;99537.84;1088585;54;20046;-84
2022/04/12 09:09:39;;;;;;;5.85;2.97;;;;;;;17.74;38.05;99536.63;1088450;54;20034;-86
2022/04/12 09:10:43;;;;;;;6.15;3.10;;;;;;;17.84;37.69;99541.63;1088615;54;20169;-86
2022/04/12 09:11:59;;;;;;;6.35;2.97;;;;;;;17.99;36.88;99539.63;1088697;46;20043;-85
2022/04/12 09:13:12;;;;;;;8.70;3.33;;;;;;;18.09;37.13;99544.59;1088598;54;20022;-87
2022/04/12 09:14:16;;;;;;;7.53;3.45;;;;;;;18.29;37.58;99538.38;1088574;54;20042;-87
2022/04/12 09:15:25;;;;;;;6.10;3.25;;;;;;;18.36;36.75;99540.06;1088947;46;20053;-86
2022/04/12 09:17:35;;;;;;;6.72;3.58;;;;;;;18.20;36.83;99548.56;1088493;54;20037;-87
2022/04/12 09:18:42;;;;;;;7.40;3.53;;;;;;;18.42;36.76;99543.78;1088526;54;20635;-87
2022/04/12 09:19:48;;;;;;;7.60;3.38;;;;;;;18.50;36.82;99534.63;1088536;54;20041;-85
2022/04/12 09:20:57;;;;;;;5.65;2.80;;;;;;;18.75;36.18;99536.69;1088504;54;20685;-84
2022/04/12 09:22:01;;;;;;;6.72;2.58;;;;;;;18.80;36.50;99543.09;1089011;46;20037;-85
2022/04/12 09:23:17;;;;;;;9.13;3.10;;;;;;;18.51;35.63;99537.13;1092961;46;20069;-84
2022/04/12 09:24:24;;;;;;;6.03;3.05;;;;;;;18.92;35.77;99537.06;1088267;54;20042;-84
2022/04/12 09:25:28;;;;;;;5.88;2.80;;;;;;;18.98;36.20;99530.84;1088137;54;20062;-85
2022/04/12 09:26:35;;;;;;;6.28;2.90;;;;;;;18.99;35.84;99527.06;1088210;54;20034;-86
2022/04/12 09:27:44;;;;;;;5.18;3.30;;;;;;;18.86;36.15;99523.31;1088397;54;20040;-86
2022/04/12 09:28:45;;;;;;;5.53;3.00;;;;;;;19.09;35.88;99534.75;1090873;39;20519;-84
2022/04/12 09:29:51;;;;;;;6.68;2.80;;;;;;;19.25;35.67;99536.16;1088376;54;20030;-86
2022/04/12 09:30:53;;;;;;;4.55;2.70;;;;;;;19.39;35.72;99532.34;1088392;54;20069;-84
2022/04/12 09:31:59;;;;;;;6.47;2.40;;;;;;;19.27;35.91;99528.66;1088414;54;20041;-85